Aviation Digital Data Service (ADDS)

Output produced by METARs form (0652 UTC 28 November 2014)
found at http://aviationweather.gov/adds/metars/
 
KGSP 280539Z 2806/2906 33006KT P6SM SKC 
     FM281700 21003KT P6SM FEW200